Thursday, December 13, 2018, 4:38 AM GMT
Back to Local

CYMX, Montreal / Mirabel

Location: , , Canada Lat: 45.683
Local Time: 4:38 AM GMT ( 4:38 GMT) Lon: -74.033
Time Zone: GMT Elev: 269 ft

Show me the last for .
Show Decoded

2018-12-13 04:00 METAR CYMX 130400Z 00000KT 25SM SKC M18/M21 A3037 RMK PRESRR SLP293 =
2018-12-13 03:00 METAR CYMX 130300Z 04004KT 25SM SKC M17/M20 A3035 RMK SLP286 =
2018-12-13 02:00 METAR CYMX 130200Z 03002KT 25SM SKC M17/M19 A3033 RMK SLP281 =
2018-12-13 01:00 METAR CYMX 130100Z 00000KT 25SM FEW220 M17/M19 A3033 RMK CI1 SLP282 =
2018-12-13 00:00 METAR CYMX 130000Z 05004KT 030V110 25SM FEW220 M16/M18 A3032 RMK CI1 CI TR
                 SLP275 =
2018-12-12 23:00 METAR CYMX 122300Z 00000KT 25SM FEW220 M14/M18 A3029 RMK CI1 CI TR SLP268 =
2018-12-12 22:00 METAR CYMX 122200Z 00000KT 25SM FEW220 M12/M18 A3028 RMK CI1 CI TR SLP262 =
2018-12-12 21:00 METAR CYMX 122100Z 11004KT 45SM FEW220 M10/M18 A3026 RMK CI1 CI TR SLP256 =
2018-12-12 20:00 METAR CYMX 122000Z 09007KT 45SM FEW150 M09/M18 A3024 RMK AC1 AC TR SLP247 =
2018-12-12 19:00 METAR CYMX 121900Z 07004KT 45SM FEW020 M08/M17 A3022 RMK SC1 SC TR SLP243 =
2018-12-12 18:00 METAR CYMX 121800Z 07005KT 45SM FEW020 M09/M17 A3021 RMK SC1 SC TR SLP240 =
2018-12-12 17:00 METAR CYMX 121700Z 05004KT 030V090 45SM FEW020 M09/M16 A3021 RMK SC1 SC TR
                 SLP237 =
2018-12-12 16:00 METAR CYMX 121600Z 08004KT 45SM FEW025 M10/M15 A3021 RMK SC1 SC TR SLP237 =
2018-12-12 15:00 METAR CYMX 121500Z 07004KT 010V100 45SM FEW025 M11/M13 A3019 RMK SC1 SC TR
                 SLP232 =
2018-12-12 14:19 METAR CYMX 121419Z 06003KT 350V130 40SM FEW009 FEW022 M12/M14 A3018 RMK SF1SC1
                 SF TR SC TR SLP228 =
2018-12-12 14:00 METAR CYMX 121400Z 03003KT 25SM R11/4000VP6000FT/D -SN FEW005 FEW022 M13/M14
                 A3017 RMK SF1SC1 SF TR SLP226 =
2018-12-12 13:00 METAR CYMX 121300Z 01002KT 10SM -SN FEW009 FEW025 FEW058 M13/M15 A3014 RMK
                 SF1SC1SC1 SF TR SC TR VIS N QUAD 25 SLP215 =
2018-12-12 12:00 METAR CYMX 121200Z 00000KT 5SM -SN FEW009 BKN024 BKN065 M13/M15 A3011 RMK
                 SF2SC3SC2 SLP206 =
2018-12-12 11:00 METAR CYMX 121100Z 31002KT 12SM -SN SCT009 BKN025 OVC060 M12/M13 A3009 RMK
                 SF4SC2SC2 SLP197 =
2018-12-12 10:00 METAR CYMX 121000Z VRB02KT 10SM -SN FEW025 OVC062 M11/M13 A3006 RMK SC2SC6
                 SLP186 =
2018-12-12 09:00 METAR CYMX 120900Z 00000KT 10SM -SN SCT025 OVC063 M11/M12 A3003 RMK SC3SC5 /S01/
                 SLP177 =
2018-12-12 08:00 METAR CYMX 120800Z 24002KT 5SM -SN FEW015 OVC065 M12/M13 A3002 RMK SC2SC6 SLP175
                 =
2018-12-12 07:00 METAR CYMX 120700Z 00000KT 15SM -SN SCT015 OVC067 M12/M12 A3000 RMK SC3AC5
                 SLP167 =
2018-12-12 06:00 METAR CYMX 120600Z 01003KT 300V080 12SM -SN SCT015 OVC078 M10/M11 A2999 RMK
                 SC3AC5 SLP164 =
2018-12-12 05:00 METAR CYMX 120500Z VRB02KT 12SM -SN SCT018 OVC080 M10/M11 A2998 RMK SC4AC4
                 SLP162 =

Support USWX by starting your Amazon purchase here.